sensor_id;sensor_type;location;lat;lon;timestamp;pressure;altitude;pressure_sealevel;temperature;humidity
57024;BME280;42916;54.346;18.562;2024-01-25T00:01:51;98972.12;;;4.43;100.00
57024;BME280;42916;54.346;18.562;2024-01-25T00:04:18;98976.05;;;4.43;100.00
57024;BME280;42916;54.346;18.562;2024-01-25T00:06:46;98977.07;;;4.43;100.00
57024;BME280;42916;54.346;18.562;2024-01-25T00:09:13;98980.51;;;4.42;100.00
57024;BME280;42916;54.346;18.562;2024-01-25T00:11:40;98988.15;;;4.41;100.00
57024;BME280;42916;54.346;18.562;2024-01-25T00:14:07;98988.36;;;4.41;100.00
57024;BME280;42916;54.346;18.562;2024-01-25T00:16:34;98986.58;;;4.41;100.00
57024;BME280;42916;54.346;18.562;2024-01-25T00:19:01;98989.79;;;4.40;100.00
57024;BME280;42916;54.346;18.562;2024-01-25T00:21:28;98992.05;;;4.40;100.00
57024;BME280;42916;54.346;18.562;2024-01-25T00:23:56;98995.80;;;4.39;100.00
57024;BME280;42916;54.346;18.562;2024-01-25T00:26:23;98995.63;;;4.38;100.00
57024;BME280;42916;54.346;18.562;2024-01-25T00:28:50;99005.22;;;4.38;100.00
57024;BME280;42916;54.346;18.562;2024-01-25T00:31:19;99007.75;;;4.38;100.00
57024;BME280;42916;54.346;18.562;2024-01-25T00:33:46;99012.60;;;4.38;100.00
57024;BME280;42916;54.346;18.562;2024-01-25T00:36:14;99010.87;;;4.38;100.00
57024;BME280;42916;54.346;18.562;2024-01-25T00:38:42;99005.10;;;4.37;100.00
57024;BME280;42916;54.346;18.562;2024-01-25T00:41:10;99008.59;;;4.36;100.00
57024;BME280;42916;54.346;18.562;2024-01-25T00:43:37;99012.67;;;4.35;100.00
57024;BME280;42916;54.346;18.562;2024-01-25T00:46:04;99011.05;;;4.34;100.00
57024;BME280;42916;54.346;18.562;2024-01-25T00:48:32;99009.53;;;4.33;100.00
57024;BME280;42916;54.346;18.562;2024-01-25T00:50:59;99018.45;;;4.33;100.00
57024;BME280;42916;54.346;18.562;2024-01-25T00:53:26;99010.56;;;4.31;100.00
57024;BME280;42916;54.346;18.562;2024-01-25T00:55:53;99020.40;;;4.29;100.00
57024;BME280;42916;54.346;18.562;2024-01-25T00:58:21;99018.36;;;4.29;100.00
57024;BME280;42916;54.346;18.562;2024-01-25T01:00:48;99014.30;;;4.28;100.00
57024;BME280;42916;54.346;18.562;2024-01-25T01:03:18;99019.71;;;4.27;100.00
57024;BME280;42916;54.346;18.562;2024-01-25T01:05:46;99030.59;;;4.26;100.00
57024;BME280;42916;54.346;18.562;2024-01-25T01:08:13;99025.66;;;4.25;100.00
57024;BME280;42916;54.346;18.562;2024-01-25T01:10:40;99031.79;;;4.25;100.00
57024;BME280;42916;54.346;18.562;2024-01-25T01:13:07;99044.05;;;4.23;100.00
57024;BME280;42916;54.346;18.562;2024-01-25T01:15:34;99028.33;;;4.23;100.00
57024;BME280;42916;54.346;18.562;2024-01-25T01:18:00;99042.20;;;4.22;100.00
57024;BME280;42916;54.346;18.562;2024-01-25T01:20:27;99043.83;;;4.23;100.00
57024;BME280;42916;54.346;18.562;2024-01-25T01:22:54;99047.67;;;4.23;100.00
57024;BME280;42916;54.346;18.562;2024-01-25T01:25:21;99050.94;;;4.23;100.00
57024;BME280;42916;54.346;18.562;2024-01-25T01:27:48;99049.13;;;4.24;100.00
57024;BME280;42916;54.346;18.562;2024-01-25T01:30:18;99041.02;;;4.25;100.00
57024;BME280;42916;54.346;18.562;2024-01-25T01:32:45;99043.83;;;4.27;100.00
57024;BME280;42916;54.346;18.562;2024-01-25T01:35:12;99053.36;;;4.27;100.00
57024;BME280;42916;54.346;18.562;2024-01-25T01:37:40;99047.53;;;4.26;100.00
57024;BME280;42916;54.346;18.562;2024-01-25T01:40:08;99048.02;;;4.26;100.00
57024;BME280;42916;54.346;18.562;2024-01-25T01:42:35;99051.31;;;4.26;100.00
57024;BME280;42916;54.346;18.562;2024-01-25T01:45:02;99055.75;;;4.24;100.00
57024;BME280;42916;54.346;18.562;2024-01-25T01:47:29;99052.30;;;4.24;100.00
57024;BME280;42916;54.346;18.562;2024-01-25T01:49:57;99052.64;;;4.22;100.00
57024;BME280;42916;54.346;18.562;2024-01-25T01:52:24;99045.95;;;4.21;100.00
57024;BME280;42916;54.346;18.562;2024-01-25T01:54:51;99052.95;;;4.20;100.00
57024;BME280;42916;54.346;18.562;2024-01-25T01:57:19;99052.50;;;4.20;100.00
57024;BME280;42916;54.346;18.562;2024-01-25T01:59:47;99061.25;;;4.18;100.00
57024;BME280;42916;54.346;18.562;2024-01-25T02:02:17;99050.62;;;4.16;100.00
57024;BME280;42916;54.346;18.562;2024-01-25T02:04:44;99058.02;;;4.13;100.00
57024;BME280;42916;54.346;18.562;2024-01-25T02:07:11;99054.96;;;4.11;100.00
57024;BME280;42916;54.346;18.562;2024-01-25T02:09:38;99053.80;;;4.09;100.00
57024;BME280;42916;54.346;18.562;2024-01-25T02:12:06;99051.92;;;4.06;100.00
57024;BME280;42916;54.346;18.562;2024-01-25T02:14:33;99047.66;;;4.05;100.00
57024;BME280;42916;54.346;18.562;2024-01-25T02:17:00;99050.33;;;4.04;100.00
57024;BME280;42916;54.346;18.562;2024-01-25T02:19:27;99044.08;;;4.03;100.00
57024;BME280;42916;54.346;18.562;2024-01-25T02:21:57;99056.27;;;4.03;100.00
57024;BME280;42916;54.346;18.562;2024-01-25T02:24:25;99058.64;;;4.03;100.00
57024;BME280;42916;54.346;18.562;2024-01-25T02:26:52;99054.52;;;4.03;100.00
57024;BME280;42916;54.346;18.562;2024-01-25T02:29:19;99059.45;;;4.02;100.00
57024;BME280;42916;54.346;18.562;2024-01-25T02:31:46;99064.88;;;4.02;100.00
57024;BME280;42916;54.346;18.562;2024-01-25T02:34:14;99069.17;;;4.01;100.00
57024;BME280;42916;54.346;18.562;2024-01-25T02:36:41;99069.79;;;3.99;100.00
57024;BME280;42916;54.346;18.562;2024-01-25T02:39:08;99070.23;;;3.97;100.00
57024;BME280;42916;54.346;18.562;2024-01-25T02:41:35;99073.63;;;3.96;100.00
57024;BME280;42916;54.346;18.562;2024-01-25T02:44:02;99077.20;;;3.95;100.00
57024;BME280;42916;54.346;18.562;2024-01-25T02:46:29;99081.19;;;3.95;100.00
57024;BME280;42916;54.346;18.562;2024-01-25T02:48:56;99079.29;;;3.94;100.00
57024;BME280;42916;54.346;18.562;2024-01-25T02:51:25;99076.60;;;3.94;100.00
57024;BME280;42916;54.346;18.562;2024-01-25T02:53:52;99082.47;;;3.95;100.00
57024;BME280;42916;54.346;18.562;2024-01-25T02:56:19;99084.08;;;3.95;100.00
57024;BME280;42916;54.346;18.562;2024-01-25T02:58:46;99085.84;;;3.96;100.00
57024;BME280;42916;54.346;18.562;2024-01-25T03:01:13;99076.66;;;3.98;100.00
57024;BME280;42916;54.346;18.562;2024-01-25T03:03:40;99082.70;;;3.99;100.00
57024;BME280;42916;54.346;18.562;2024-01-25T03:06:07;99084.47;;;4.01;100.00
57024;BME280;42916;54.346;18.562;2024-01-25T03:08:34;99087.98;;;4.02;100.00
57024;BME280;42916;54.346;18.562;2024-01-25T03:11:01;99081.54;;;4.03;100.00
57024;BME280;42916;54.346;18.562;2024-01-25T03:13:30;99092.79;;;4.04;100.00
57024;BME280;42916;54.346;18.562;2024-01-25T03:15:58;99096.08;;;4.04;100.00
57024;BME280;42916;54.346;18.562;2024-01-25T03:18:25;99099.80;;;4.04;100.00
57024;BME280;42916;54.346;18.562;2024-01-25T03:20:52;99104.31;;;4.04;100.00
57024;BME280;42916;54.346;18.562;2024-01-25T03:23:18;99118.68;;;4.04;100.00
57024;BME280;42916;54.346;18.562;2024-01-25T03:25:45;99112.55;;;4.04;100.00
57024;BME280;42916;54.346;18.562;2024-01-25T03:28:12;99123.20;;;4.04;100.00
57024;BME280;42916;54.346;18.562;2024-01-25T03:30:41;99121.19;;;4.03;100.00
57024;BME280;42916;54.346;18.562;2024-01-25T03:33:08;99122.15;;;4.03;100.00
57024;BME280;42916;54.346;18.562;2024-01-25T03:35:35;99118.55;;;4.01;100.00
57024;BME280;42916;54.346;18.562;2024-01-25T03:38:02;99128.55;;;4.02;100.00
57024;BME280;42916;54.346;18.562;2024-01-25T03:40:29;99132.52;;;4.02;100.00
57024;BME280;42916;54.346;18.562;2024-01-25T03:42:56;99133.91;;;4.01;100.00
57024;BME280;42916;54.346;18.562;2024-01-25T03:45:22;99136.83;;;4.00;100.00
57024;BME280;42916;54.346;18.562;2024-01-25T03:47:51;99138.39;;;4.01;100.00
57024;BME280;42916;54.346;18.562;2024-01-25T03:50:19;99139.88;;;4.01;100.00
57024;BME280;42916;54.346;18.562;2024-01-25T03:52:46;99142.73;;;4.01;100.00
57024;BME280;42916;54.346;18.562;2024-01-25T03:55:13;99145.36;;;4.00;100.00
57024;BME280;42916;54.346;18.562;2024-01-25T03:57:40;99152.27;;;3.99;100.00
57024;BME280;42916;54.346;18.562;2024-01-25T04:00:09;99166.17;;;3.99;100.00
57024;BME280;42916;54.346;18.562;2024-01-25T04:02:36;99160.55;;;3.97;100.00
57024;BME280;42916;54.346;18.562;2024-01-25T04:05:03;99170.67;;;3.95;100.00
57024;BME280;42916;54.346;18.562;2024-01-25T04:07:31;99168.27;;;3.93;100.00
57024;BME280;42916;54.346;18.562;2024-01-25T04:09:58;99168.77;;;3.93;100.00
57024;BME280;42916;54.346;18.562;2024-01-25T04:12:25;99164.47;;;3.91;100.00
57024;BME280;42916;54.346;18.562;2024-01-25T04:14:52;99159.86;;;3.90;100.00
57024;BME280;42916;54.346;18.562;2024-01-25T04:17:19;99163.36;;;3.89;100.00
57024;BME280;42916;54.346;18.562;2024-01-25T04:19:45;99164.24;;;3.90;100.00
57024;BME280;42916;54.346;18.562;2024-01-25T04:22:13;99163.77;;;3.91;100.00
57024;BME280;42916;54.346;18.562;2024-01-25T04:24:40;99167.17;;;3.91;100.00
57024;BME280;42916;54.346;18.562;2024-01-25T04:27:07;99174.11;;;3.91;100.00
57024;BME280;42916;54.346;18.562;2024-01-25T04:29:34;99169.94;;;3.93;100.00
57024;BME280;42916;54.346;18.562;2024-01-25T04:32:05;99174.80;;;3.94;100.00
57024;BME280;42916;54.346;18.562;2024-01-25T04:34:32;99181.51;;;3.96;100.00
57024;BME280;42916;54.346;18.562;2024-01-25T04:36:59;99193.17;;;3.98;100.00
57024;BME280;42916;54.346;18.562;2024-01-25T04:39:25;99198.73;;;4.00;100.00
57024;BME280;42916;54.346;18.562;2024-01-25T04:41:53;99201.89;;;3.98;100.00
57024;BME280;42916;54.346;18.562;2024-01-25T04:44:20;99207.83;;;4.00;100.00
57024;BME280;42916;54.346;18.562;2024-01-25T04:46:47;99218.69;;;3.99;100.00
57024;BME280;42916;54.346;18.562;2024-01-25T04:49:13;99219.34;;;3.99;100.00
57024;BME280;42916;54.346;18.562;2024-01-25T04:51:40;99236.18;;;3.98;100.00
57024;BME280;42916;54.346;18.562;2024-01-25T04:54:07;99236.07;;;3.99;100.00
57024;BME280;42916;54.346;18.562;2024-01-25T04:56:38;99240.70;;;3.98;100.00
57024;BME280;42916;54.346;18.562;2024-01-25T04:59:05;99248.30;;;3.96;100.00
57024;BME280;42916;54.346;18.562;2024-01-25T05:01:32;99248.96;;;3.95;100.00
57024;BME280;42916;54.346;18.562;2024-01-25T05:03:59;99245.80;;;3.92;100.00
57024;BME280;42916;54.346;18.562;2024-01-25T05:06:26;99241.02;;;3.89;100.00
57024;BME280;42916;54.346;18.562;2024-01-25T05:08:55;99250.85;;;3.89;100.00
57024;BME280;42916;54.346;18.562;2024-01-25T05:11:22;99257.55;;;3.88;100.00
57024;BME280;42916;54.346;18.562;2024-01-25T05:13:49;99255.99;;;3.88;100.00
57024;BME280;42916;54.346;18.562;2024-01-25T05:16:16;99267.55;;;3.87;100.00
57024;BME280;42916;54.346;18.562;2024-01-25T05:18:43;99272.63;;;3.88;100.00
57024;BME280;42916;54.346;18.562;2024-01-25T05:21:10;99277.07;;;3.87;100.00
57024;BME280;42916;54.346;18.562;2024-01-25T05:23:37;99279.01;;;3.87;100.00
57024;BME280;42916;54.346;18.562;2024-01-25T05:26:05;99287.25;;;3.87;100.00
57024;BME280;42916;54.346;18.562;2024-01-25T05:28:32;99289.11;;;3.89;100.00
57024;BME280;42916;54.346;18.562;2024-01-25T05:30:59;99292.40;;;3.90;100.00
57024;BME280;42916;54.346;18.562;2024-01-25T05:33:26;99297.81;;;3.91;100.00
57024;BME280;42916;54.346;18.562;2024-01-25T05:35:53;99299.47;;;3.93;100.00
57024;BME280;42916;54.346;18.562;2024-01-25T05:38:20;99305.11;;;3.92;100.00
57024;BME280;42916;54.346;18.562;2024-01-25T05:40:47;99306.25;;;3.93;100.00
57024;BME280;42916;54.346;18.562;2024-01-25T05:43:14;99309.70;;;3.94;100.00
57024;BME280;42916;54.346;18.562;2024-01-25T05:45:41;99305.26;;;3.95;100.00
57024;BME280;42916;54.346;18.562;2024-01-25T05:48:07;99312.96;;;3.95;100.00
57024;BME280;42916;54.346;18.562;2024-01-25T05:50:34;99316.86;;;3.96;100.00
57024;BME280;42916;54.346;18.562;2024-01-25T05:53:01;99321.08;;;3.97;100.00
57024;BME280;42916;54.346;18.562;2024-01-25T05:55:28;99334.64;;;3.97;100.00
57024;BME280;42916;54.346;18.562;2024-01-25T05:57:55;99330.15;;;3.99;100.00
57024;BME280;42916;54.346;18.562;2024-01-25T06:00:22;99332.43;;;4.00;100.00
57024;BME280;42916;54.346;18.562;2024-01-25T06:02:49;99332.95;;;4.02;100.00
57024;BME280;42916;54.346;18.562;2024-01-25T06:05:17;99347.45;;;4.03;100.00
57024;BME280;42916;54.346;18.562;2024-01-25T06:07:45;99355.91;;;4.04;100.00
57024;BME280;42916;54.346;18.562;2024-01-25T06:10:12;99360.76;;;4.04;100.00
57024;BME280;42916;54.346;18.562;2024-01-25T06:12:39;99367.20;;;4.07;100.00
57024;BME280;42916;54.346;18.562;2024-01-25T06:15:06;99378.09;;;4.09;100.00
57024;BME280;42916;54.346;18.562;2024-01-25T06:17:33;99379.89;;;4.10;100.00
57024;BME280;42916;54.346;18.562;2024-01-25T06:20:00;99378.28;;;4.10;100.00
57024;BME280;42916;54.346;18.562;2024-01-25T06:22:27;99390.09;;;4.11;100.00
57024;BME280;42916;54.346;18.562;2024-01-25T06:24:54;99390.98;;;4.09;100.00
57024;BME280;42916;54.346;18.562;2024-01-25T06:27:24;99400.92;;;4.11;100.00
57024;BME280;42916;54.346;18.562;2024-01-25T06:29:51;99403.69;;;4.12;100.00
57024;BME280;42916;54.346;18.562;2024-01-25T06:32:30;99409.05;;;4.14;100.00
57024;BME280;42916;54.346;18.562;2024-01-25T06:35:14;99413.40;;;4.14;100.00
57024;BME280;42916;54.346;18.562;2024-01-25T06:37:45;99410.17;;;4.13;100.00
57024;BME280;42916;54.346;18.562;2024-01-25T06:40:13;99420.02;;;4.14;100.00
57024;BME280;42916;54.346;18.562;2024-01-25T06:42:40;99429.02;;;4.13;100.00
57024;BME280;42916;54.346;18.562;2024-01-25T06:45:09;99434.27;;;4.13;100.00
57024;BME280;42916;54.346;18.562;2024-01-25T06:47:36;99448.27;;;4.13;100.00
57024;BME280;42916;54.346;18.562;2024-01-25T06:50:09;99456.84;;;4.13;100.00
57024;BME280;42916;54.346;18.562;2024-01-25T06:52:42;99461.52;;;4.13;100.00
57024;BME280;42916;54.346;18.562;2024-01-25T06:55:14;99472.61;;;4.13;100.00
57024;BME280;42916;54.346;18.562;2024-01-25T06:57:41;99485.42;;;4.13;100.00
57024;BME280;42916;54.346;18.562;2024-01-25T07:00:08;99497.05;;;4.13;100.00
57024;BME280;42916;54.346;18.562;2024-01-25T07:02:36;99506.44;;;4.14;100.00
57024;BME280;42916;54.346;18.562;2024-01-25T07:05:04;99512.90;;;4.14;100.00
57024;BME280;42916;54.346;18.562;2024-01-25T07:07:31;99520.11;;;4.14;100.00
57024;BME280;42916;54.346;18.562;2024-01-25T07:09:59;99527.31;;;4.14;100.00
57024;BME280;42916;54.346;18.562;2024-01-25T07:12:26;99526.61;;;4.13;100.00
57024;BME280;42916;54.346;18.562;2024-01-25T07:14:53;99541.70;;;4.13;100.00
57024;BME280;42916;54.346;18.562;2024-01-25T07:17:20;99546.58;;;4.13;100.00
57024;BME280;42916;54.346;18.562;2024-01-25T07:19:48;99555.23;;;4.12;100.00
57024;BME280;42916;54.346;18.562;2024-01-25T07:22:16;99562.08;;;4.10;100.00
57024;BME280;42916;54.346;18.562;2024-01-25T07:24:45;99571.21;;;4.08;100.00
57024;BME280;42916;54.346;18.562;2024-01-25T07:27:12;99585.10;;;4.03;100.00
57024;BME280;42916;54.346;18.562;2024-01-25T07:29:39;99592.34;;;3.93;100.00
57024;BME280;42916;54.346;18.562;2024-01-25T07:32:06;99601.39;;;3.83;100.00
57024;BME280;42916;54.346;18.562;2024-01-25T07:34:34;99610.21;;;3.72;100.00
57024;BME280;42916;54.346;18.562;2024-01-25T07:37:01;99618.79;;;3.63;100.00
57024;BME280;42916;54.346;18.562;2024-01-25T07:39:27;99625.28;;;3.52;100.00
57024;BME280;42916;54.346;18.562;2024-01-25T07:41:54;99631.91;;;3.43;100.00
57024;BME280;42916;54.346;18.562;2024-01-25T07:44:21;99632.71;;;3.35;100.00
57024;BME280;42916;54.346;18.562;2024-01-25T07:46:48;99637.87;;;3.30;100.00
57024;BME280;42916;54.346;18.562;2024-01-25T07:49:16;99647.77;;;3.26;100.00
57024;BME280;42916;54.346;18.562;2024-01-25T07:51:43;99661.20;;;3.24;100.00
57024;BME280;42916;54.346;18.562;2024-01-25T07:54:10;99665.91;;;3.20;100.00
57024;BME280;42916;54.346;18.562;2024-01-25T07:56:37;99675.05;;;3.13;100.00
57024;BME280;42916;54.346;18.562;2024-01-25T07:59:04;99686.91;;;3.09;100.00
57024;BME280;42916;54.346;18.562;2024-01-25T08:01:31;99694.59;;;3.03;100.00
57024;BME280;42916;54.346;18.562;2024-01-25T08:03:58;99699.10;;;2.95;100.00
57024;BME280;42916;54.346;18.562;2024-01-25T08:06:26;99702.85;;;2.90;100.00
57024;BME280;42916;54.346;18.562;2024-01-25T08:08:54;99713.85;;;2.90;100.00
57024;BME280;42916;54.346;18.562;2024-01-25T08:11:21;99719.45;;;2.87;100.00
57024;BME280;42916;54.346;18.562;2024-01-25T08:13:50;99734.13;;;2.83;100.00
57024;BME280;42916;54.346;18.562;2024-01-25T08:16:18;99736.54;;;2.78;100.00
57024;BME280;42916;54.346;18.562;2024-01-25T08:18:55;99746.86;;;2.73;100.00
57024;BME280;42916;54.346;18.562;2024-01-25T08:21:22;99758.17;;;2.69;100.00
57024;BME280;42916;54.346;18.562;2024-01-25T08:23:52;99758.55;;;2.62;100.00
57024;BME280;42916;54.346;18.562;2024-01-25T08:26:18;99765.79;;;2.56;100.00
57024;BME280;42916;54.346;18.562;2024-01-25T08:28:46;99776.03;;;2.50;100.00
57024;BME280;42916;54.346;18.562;2024-01-25T08:31:13;99787.74;;;2.49;100.00
57024;BME280;42916;54.346;18.562;2024-01-25T08:33:41;99792.64;;;2.43;100.00
57024;BME280;42916;54.346;18.562;2024-01-25T08:36:10;99798.45;;;2.40;100.00
57024;BME280;42916;54.346;18.562;2024-01-25T08:38:37;99800.10;;;2.35;100.00
57024;BME280;42916;54.346;18.562;2024-01-25T08:41:04;99804.70;;;2.30;100.00
57024;BME280;42916;54.346;18.562;2024-01-25T08:43:31;99814.35;;;2.26;100.00
57024;BME280;42916;54.346;18.562;2024-01-25T08:45:58;99829.77;;;2.23;100.00
57024;BME280;42916;54.346;18.562;2024-01-25T08:48:25;99836.61;;;2.22;100.00
57024;BME280;42916;54.346;18.562;2024-01-25T08:50:52;99841.59;;;2.18;100.00
57024;BME280;42916;54.346;18.562;2024-01-25T08:53:21;99846.97;;;2.17;100.00
57024;BME280;42916;54.346;18.562;2024-01-25T08:55:51;99853.41;;;2.14;100.00
57024;BME280;42916;54.346;18.562;2024-01-25T08:58:18;99861.36;;;2.11;100.00
57024;BME280;42916;54.346;18.562;2024-01-25T09:00:45;99870.88;;;2.04;100.00
57024;BME280;42916;54.346;18.562;2024-01-25T09:03:12;99874.48;;;2.04;100.00
57024;BME280;42916;54.346;18.562;2024-01-25T09:05:39;99890.58;;;2.00;100.00
57024;BME280;42916;54.346;18.562;2024-01-25T09:08:12;99896.55;;;1.96;100.00
57024;BME280;42916;54.346;18.562;2024-01-25T09:10:41;99902.36;;;1.94;100.00
57024;BME280;42916;54.346;18.562;2024-01-25T09:13:09;99901.05;;;1.91;100.00
57024;BME280;42916;54.346;18.562;2024-01-25T09:15:36;99905.91;;;1.90;100.00
57024;BME280;42916;54.346;18.562;2024-01-25T09:18:03;99914.54;;;1.91;100.00
57024;BME280;42916;54.346;18.562;2024-01-25T09:20:33;99913.66;;;1.97;100.00
57024;BME280;42916;54.346;18.562;2024-01-25T09:22:59;99918.27;;;2.01;100.00
57024;BME280;42916;54.346;18.562;2024-01-25T09:25:26;99920.32;;;2.07;100.00
57024;BME280;42916;54.346;18.562;2024-01-25T09:27:53;99932.10;;;2.14;100.00
57024;BME280;42916;54.346;18.562;2024-01-25T09:30:20;99930.65;;;2.18;100.00
57024;BME280;42916;54.346;18.562;2024-01-25T09:32:47;99935.48;;;2.36;100.00
57024;BME280;42916;54.346;18.562;2024-01-25T09:35:16;99934.97;;;2.61;100.00
57024;BME280;42916;54.346;18.562;2024-01-25T09:37:43;99938.61;;;2.69;100.00
57024;BME280;42916;54.346;18.562;2024-01-25T09:40:10;99944.86;;;2.76;100.00
57024;BME280;42916;54.346;18.562;2024-01-25T09:42:38;99943.30;;;2.86;100.00
57024;BME280;42916;54.346;18.562;2024-01-25T09:45:06;99950.45;;;3.07;100.00
57024;BME280;42916;54.346;18.562;2024-01-25T09:47:34;99953.33;;;3.44;100.00
57024;BME280;42916;54.346;18.562;2024-01-25T09:50:01;99958.44;;;3.87;100.00
57024;BME280;42916;54.346;18.562;2024-01-25T09:52:31;99957.40;;;4.20;100.00
57024;BME280;42916;54.346;18.562;2024-01-25T09:54:58;99960.72;;;4.49;100.00
57024;BME280;42916;54.346;18.562;2024-01-25T09:57:28;99967.07;;;4.58;100.00
57024;BME280;42916;54.346;18.562;2024-01-25T09:59:55;99963.95;;;4.56;100.00
57024;BME280;42916;54.346;18.562;2024-01-25T10:02:22;99966.23;;;4.66;100.00
57024;BME280;42916;54.346;18.562;2024-01-25T10:04:50;99972.84;;;4.95;100.00
57024;BME280;42916;54.346;18.562;2024-01-25T10:07:39;99975.09;;;5.36;100.00
57024;BME280;42916;54.346;18.562;2024-01-25T10:10:07;99977.86;;;5.54;100.00
57024;BME280;42916;54.346;18.562;2024-01-25T10:12:34;99984.52;;;5.60;100.00
57024;BME280;42916;54.346;18.562;2024-01-25T10:15:03;99992.04;;;5.76;100.00
57024;BME280;42916;54.346;18.562;2024-01-25T10:17:30;99995.05;;;5.94;100.00
57024;BME280;42916;54.346;18.562;2024-01-25T10:19:58;100007.73;;;5.97;100.00
57024;BME280;42916;54.346;18.562;2024-01-25T10:22:25;100010.33;;;5.98;100.00
57024;BME280;42916;54.346;18.562;2024-01-25T10:24:54;100022.46;;;5.91;100.00
57024;BME280;42916;54.346;18.562;2024-01-25T10:27:21;100022.49;;;5.74;100.00
57024;BME280;42916;54.346;18.562;2024-01-25T10:29:49;100030.19;;;5.71;100.00
57024;BME280;42916;54.346;18.562;2024-01-25T10:32:17;100028.08;;;5.71;100.00
57024;BME280;42916;54.346;18.562;2024-01-25T10:34:45;100035.57;;;5.61;100.00
57024;BME280;42916;54.346;18.562;2024-01-25T10:37:14;100033.77;;;5.61;100.00
57024;BME280;42916;54.346;18.562;2024-01-25T10:39:42;100032.20;;;5.52;100.00
57024;BME280;42916;54.346;18.562;2024-01-25T10:42:10;100034.77;;;5.52;100.00
57024;BME280;42916;54.346;18.562;2024-01-25T10:44:37;100036.23;;;5.45;100.00
57024;BME280;42916;54.346;18.562;2024-01-25T10:47:05;100037.02;;;5.42;100.00
57024;BME280;42916;54.346;18.562;2024-01-25T10:49:34;100041.80;;;5.50;100.00
57024;BME280;42916;54.346;18.562;2024-01-25T10:52:05;100057.45;;;5.41;100.00
57024;BME280;42916;54.346;18.562;2024-01-25T10:54:33;100058.80;;;5.32;100.00
57024;BME280;42916;54.346;18.562;2024-01-25T10:57:00;100062.09;;;5.30;100.00
57024;BME280;42916;54.346;18.562;2024-01-25T10:59:28;100067.17;;;5.40;100.00
57024;BME280;42916;54.346;18.562;2024-01-25T11:01:54;100064.61;;;5.60;100.00
57024;BME280;42916;54.346;18.562;2024-01-25T11:04:21;100063.98;;;5.74;100.00
57024;BME280;42916;54.346;18.562;2024-01-25T11:06:52;100074.07;;;5.69;100.00
57024;BME280;42916;54.346;18.562;2024-01-25T11:09:21;100073.91;;;5.36;100.00
57024;BME280;42916;54.346;18.562;2024-01-25T11:11:48;100073.64;;;4.87;100.00
57024;BME280;42916;54.346;18.562;2024-01-25T11:14:19;100086.14;;;4.50;100.00
57024;BME280;42916;54.346;18.562;2024-01-25T11:16:46;100089.83;;;4.41;100.00
57024;BME280;42916;54.346;18.562;2024-01-25T11:19:18;100095.25;;;4.29;100.00
57024;BME280;42916;54.346;18.562;2024-01-25T11:21:50;100100.20;;;4.12;100.00
57024;BME280;42916;54.346;18.562;2024-01-25T11:24:21;100101.46;;;3.88;100.00
57024;BME280;42916;54.346;18.562;2024-01-25T11:26:49;100104.21;;;3.66;100.00
57024;BME280;42916;54.346;18.562;2024-01-25T11:29:18;100119.67;;;3.51;100.00
57024;BME280;42916;54.346;18.562;2024-01-25T11:31:48;100123.98;;;3.49;100.00
57024;BME280;42916;54.346;18.562;2024-01-25T11:34:18;100133.56;;;3.62;100.00
57024;BME280;42916;54.346;18.562;2024-01-25T11:36:45;100133.20;;;3.73;100.00
57024;BME280;42916;54.346;18.562;2024-01-25T11:39:14;100134.89;;;3.93;100.00
57024;BME280;42916;54.346;18.562;2024-01-25T11:41:44;100137.74;;;4.20;100.00
57024;BME280;42916;54.346;18.562;2024-01-25T11:44:11;100140.98;;;4.25;100.00
57024;BME280;42916;54.346;18.562;2024-01-25T11:46:39;100147.67;;;4.17;100.00
57024;BME280;42916;54.346;18.562;2024-01-25T11:49:06;100147.36;;;4.02;100.00
57024;BME280;42916;54.346;18.562;2024-01-25T11:51:36;100151.02;;;3.89;100.00
57024;BME280;42916;54.346;18.562;2024-01-25T11:54:02;100160.34;;;3.74;100.00
57024;BME280;42916;54.346;18.562;2024-01-25T11:56:36;100160.47;;;3.59;100.00
57024;BME280;42916;54.346;18.562;2024-01-25T11:59:06;100159.91;;;3.46;100.00
57024;BME280;42916;54.346;18.562;2024-01-25T12:01:34;100171.89;;;3.33;100.00
57024;BME280;42916;54.346;18.562;2024-01-25T12:04:00;100171.61;;;3.29;100.00
57024;BME280;42916;54.346;18.562;2024-01-25T12:06:29;100174.16;;;3.30;100.00
57024;BME280;42916;54.346;18.562;2024-01-25T12:09:08;100179.56;;;3.26;100.00
57024;BME280;42916;54.346;18.562;2024-01-25T12:11:36;100179.00;;;3.22;100.00
57024;BME280;42916;54.346;18.562;2024-01-25T12:14:03;100185.20;;;3.20;100.00
57024;BME280;42916;54.346;18.562;2024-01-25T12:16:29;100183.29;;;3.17;100.00
57024;BME280;42916;54.346;18.562;2024-01-25T12:18:58;100194.19;;;3.17;100.00
57024;BME280;42916;54.346;18.562;2024-01-25T12:21:25;100199.24;;;3.16;100.00
57024;BME280;42916;54.346;18.562;2024-01-25T12:23:52;100207.89;;;3.13;100.00
57024;BME280;42916;54.346;18.562;2024-01-25T12:26:19;100212.57;;;3.13;100.00
57024;BME280;42916;54.346;18.562;2024-01-25T12:28:46;100219.02;;;3.11;100.00
57024;BME280;42916;54.346;18.562;2024-01-25T12:31:17;100221.92;;;3.10;100.00
57024;BME280;42916;54.346;18.562;2024-01-25T12:33:45;100222.92;;;3.08;100.00
57024;BME280;42916;54.346;18.562;2024-01-25T12:36:12;100232.02;;;3.07;100.00
57024;BME280;42916;54.346;18.562;2024-01-25T12:38:39;100240.70;;;3.06;100.00
57024;BME280;42916;54.346;18.562;2024-01-25T12:41:05;100247.10;;;3.07;100.00
57024;BME280;42916;54.346;18.562;2024-01-25T12:43:32;100254.05;;;3.08;100.00
57024;BME280;42916;54.346;18.562;2024-01-25T12:45:59;100260.27;;;3.07;100.00
57024;BME280;42916;54.346;18.562;2024-01-25T12:48:26;100261.95;;;3.03;100.00
57024;BME280;42916;54.346;18.562;2024-01-25T12:50:53;100262.91;;;2.98;100.00